createdAt,value
2022-10-26T00:00:26.518Z,4.78
2022-10-26T00:02:57.215Z,4.95
2022-10-26T00:05:24.310Z,4.60
2022-10-26T00:07:51.114Z,4.32
2022-10-26T00:10:18.068Z,4.38
2022-10-26T00:12:48.023Z,4.55
2022-10-26T00:15:15.104Z,4.20
2022-10-26T00:17:41.760Z,4.93
2022-10-26T00:20:08.866Z,4.35
2022-10-26T00:22:36.051Z,5.05
2022-10-26T00:25:02.721Z,4.15
2022-10-26T00:27:29.610Z,4.85
2022-10-26T00:29:56.331Z,5.00
2022-10-26T00:32:23.171Z,5.07
2022-10-26T00:34:49.831Z,5.30
2022-10-26T00:37:16.439Z,4.80
2022-10-26T00:39:43.262Z,5.45
2022-10-26T00:42:17.093Z,5.15
2022-10-26T00:44:46.649Z,5.50
2022-10-26T00:47:32.056Z,5.10
2022-10-26T00:50:03.047Z,5.50
2022-10-26T00:52:30.310Z,4.80
2022-10-26T00:54:57.211Z,5.60
2022-10-26T00:57:24.750Z,5.60
2022-10-26T00:59:54.700Z,5.70
2022-10-26T01:02:21.965Z,4.93
2022-10-26T01:04:49.604Z,5.53
2022-10-26T01:07:17.037Z,6.00
2022-10-26T01:09:44.160Z,5.57
2022-10-26T01:12:10.851Z,5.70
2022-10-26T01:14:38.215Z,5.20
2022-10-26T01:17:23.624Z,5.50
2022-10-26T01:19:59.007Z,5.45
2022-10-26T01:22:56.875Z,5.35
2022-10-26T01:25:41.754Z,5.15
2022-10-26T01:28:28.853Z,5.32
2022-10-26T01:31:00.049Z,5.03
2022-10-26T01:33:39.868Z,4.50
2022-10-26T01:36:27.006Z,4.60
2022-10-26T01:39:21.041Z,5.03
2022-10-26T01:41:50.465Z,4.45
2022-10-26T01:44:25.182Z,4.65
2022-10-26T01:46:54.891Z,4.28
2022-10-26T01:49:25.242Z,5.30
2022-10-26T01:51:51.976Z,4.95
2022-10-26T01:54:18.686Z,4.38
2022-10-26T01:56:48.784Z,4.72
2022-10-26T01:59:47.400Z,4.13
2022-10-26T02:02:42.488Z,4.95
2022-10-26T02:05:30.847Z,3.80
2022-10-26T02:08:21.538Z,5.97
2022-10-26T02:11:14.107Z,5.70
2022-10-26T02:13:44.624Z,5.78
2022-10-26T02:16:25.962Z,6.43
2022-10-26T02:19:31.548Z,6.32
2022-10-26T02:22:05.851Z,5.93
2022-10-26T02:24:34.888Z,5.57
2022-10-26T02:27:05.115Z,6.72
2022-10-26T02:29:33.330Z,5.75
2022-10-26T02:32:02.218Z,5.00
2022-10-26T02:34:30.305Z,5.57
2022-10-26T02:36:59.823Z,5.47
2022-10-26T02:39:30.150Z,5.32
2022-10-26T02:41:57.639Z,4.93
2022-10-26T02:44:27.567Z,5.60
2022-10-26T02:46:55.860Z,6.05
2022-10-26T02:49:23.324Z,5.45
2022-10-26T02:51:49.966Z,5.20
2022-10-26T02:54:27.116Z,4.97
2022-10-26T02:57:00.649Z,5.10
2022-10-26T02:59:33.867Z,5.68
2022-10-26T03:02:00.827Z,4.40
2022-10-26T03:04:31.994Z,5.05
2022-10-26T03:06:58.719Z,5.38
2022-10-26T03:09:25.849Z,5.70
2022-10-26T03:11:53.403Z,5.20
2022-10-26T03:14:20.421Z,5.63
2022-10-26T03:16:47.305Z,4.82
2022-10-26T03:19:13.983Z,5.43
2022-10-26T03:21:42.192Z,5.00
2022-10-26T03:24:09.342Z,4.57
2022-10-26T03:26:36.229Z,5.60
2022-10-26T03:29:03.229Z,5.22
2022-10-26T03:31:29.969Z,4.70
2022-10-26T03:33:56.739Z,5.15
2022-10-26T03:36:23.412Z,4.53
2022-10-26T03:38:50.064Z,5.00
2022-10-26T03:41:16.731Z,5.18
2022-10-26T03:43:43.584Z,4.75
2022-10-26T03:46:10.349Z,5.28
2022-10-26T03:48:37.018Z,4.88
2022-10-26T03:51:03.780Z,4.70
2022-10-26T03:53:30.656Z,5.25
2022-10-26T03:55:57.310Z,5.35
2022-10-26T04:00:51.041Z,5.20
2022-10-26T04:03:17.924Z,4.57
2022-10-26T04:05:44.637Z,5.32
2022-10-26T04:08:11.532Z,5.00
2022-10-26T04:10:38.407Z,5.20
2022-10-26T04:13:05.096Z,5.95
2022-10-26T04:15:31.949Z,5.45
2022-10-26T04:18:00.349Z,5.47
2022-10-26T04:20:28.318Z,5.35
2022-10-26T04:23:05.478Z,5.28
2022-10-26T04:25:33.755Z,4.85
2022-10-26T04:28:02.343Z,4.90
2022-10-26T04:30:30.113Z,4.95
2022-10-26T04:32:57.064Z,5.05
2022-10-26T04:35:24.113Z,5.15
2022-10-26T04:37:50.894Z,5.88
2022-10-26T04:40:17.734Z,4.90
2022-10-26T04:42:46.339Z,5.25
2022-10-26T04:45:16.802Z,5.60
2022-10-26T04:47:43.911Z,4.82
2022-10-26T04:50:12.777Z,5.32
2022-10-26T04:52:40.186Z,5.50
2022-10-26T04:55:07.966Z,5.13
2022-10-26T04:57:35.612Z,4.53
2022-10-26T05:00:05.024Z,5.57
2022-10-26T05:02:31.887Z,5.72
2022-10-26T05:04:58.641Z,5.32
2022-10-26T05:07:25.369Z,6.45
2022-10-26T05:09:52.080Z,5.50
2022-10-26T05:12:18.980Z,5.70
2022-10-26T05:14:46.104Z,5.95
2022-10-26T05:17:12.769Z,5.90
2022-10-26T05:19:39.694Z,6.28
2022-10-26T05:22:06.536Z,5.40
2022-10-26T05:24:33.370Z,4.95
2022-10-26T05:27:02.834Z,5.22
2022-10-26T05:29:29.674Z,6.80
2022-10-26T05:31:56.383Z,6.43
2022-10-26T05:34:23.307Z,5.72
2022-10-26T05:36:53.332Z,5.60
2022-10-26T05:39:21.274Z,5.25
2022-10-26T05:41:48.104Z,4.82
2022-10-26T05:44:14.927Z,4.88
2022-10-26T05:46:41.899Z,4.80
2022-10-26T05:49:08.563Z,5.22
2022-10-26T05:51:37.159Z,5.70
2022-10-26T05:54:04.426Z,5.20
2022-10-26T05:56:39.240Z,5.13
2022-10-26T05:59:13.220Z,5.25
2022-10-26T06:01:55.434Z,4.95
2022-10-26T06:04:43.184Z,5.18
2022-10-26T06:07:15.171Z,4.47
2022-10-26T06:09:42.840Z,5.63
2022-10-26T06:12:12.658Z,5.32
2022-10-26T06:14:41.589Z,4.87
2022-10-26T06:17:33.064Z,4.72
2022-10-26T06:20:16.549Z,5.63
2022-10-26T06:23:12.012Z,5.80
2022-10-26T06:26:00.459Z,4.88
2022-10-26T06:28:33.252Z,5.18
2022-10-26T06:30:59.950Z,4.68
2022-10-26T06:33:29.758Z,5.85
2022-10-26T06:36:02.609Z,4.50
2022-10-26T06:38:31.315Z,5.03
2022-10-26T06:41:00.090Z,5.32
2022-10-26T06:43:30.125Z,4.20
2022-10-26T06:46:28.491Z,5.40
2022-10-26T06:49:16.127Z,4.70
2022-10-26T06:51:53.326Z,4.82
2022-10-26T06:54:44.007Z,5.30
2022-10-26T06:57:13.215Z,4.57
2022-10-26T06:59:56.045Z,4.85
2022-10-26T07:02:23.476Z,3.92
2022-10-26T07:04:50.355Z,4.53
2022-10-26T07:07:25.576Z,4.60
2022-10-26T07:09:52.818Z,4.90
2022-10-26T07:12:19.512Z,4.80
2022-10-26T07:14:46.261Z,4.80
2022-10-26T07:17:13.045Z,4.95
2022-10-26T07:19:44.654Z,3.97
2022-10-26T07:22:11.550Z,4.65
2022-10-26T07:24:38.364Z,4.20
2022-10-26T07:27:05.450Z,4.25
2022-10-26T07:29:32.312Z,3.92
2022-10-26T07:31:59.072Z,3.95
2022-10-26T07:34:26.067Z,3.90
2022-10-26T07:36:53.076Z,4.60
2022-10-26T07:39:19.739Z,4.28
2022-10-26T07:41:47.532Z,3.90
2022-10-26T07:44:14.251Z,3.65
2022-10-26T07:46:41.188Z,4.10
2022-10-26T07:49:07.912Z,5.10
2022-10-26T07:51:37.828Z,4.38
2022-10-26T07:54:04.697Z,4.15
2022-10-26T07:56:31.693Z,3.03
2022-10-26T07:58:58.491Z,3.80
2022-10-26T08:01:25.764Z,3.65
2022-10-26T08:03:53.926Z,3.53
2022-10-26T08:06:21.887Z,2.58
2022-10-26T08:08:49.076Z,3.00
2022-10-26T08:11:16.704Z,3.08
2022-10-26T08:13:43.469Z,2.80
2022-10-26T08:16:10.327Z,2.70
2022-10-26T08:18:37.130Z,2.83
2022-10-26T08:21:11.552Z,2.80
2022-10-26T08:23:39.733Z,2.50
2022-10-26T08:26:07.081Z,3.10
2022-10-26T08:28:33.768Z,3.20
2022-10-26T08:31:00.602Z,3.08
2022-10-26T08:33:27.255Z,2.67
2022-10-26T08:36:02.423Z,3.30
2022-10-26T08:38:29.559Z,3.10
2022-10-26T08:40:58.080Z,3.05
2022-10-26T08:43:50.103Z,2.90
2022-10-26T08:46:21.700Z,3.28
2022-10-26T08:48:56.142Z,3.60
2022-10-26T08:51:28.484Z,2.72
2022-10-26T08:56:29.477Z,3.17
2022-10-26T08:59:02.897Z,3.10
2022-10-26T09:01:34.107Z,3.33
2022-10-26T09:04:03.384Z,3.67
2022-10-26T09:06:42.063Z,3.80
2022-10-26T09:09:21.345Z,3.42
2022-10-26T09:12:14.592Z,3.35
2022-10-26T09:15:40.093Z,3.58
2022-10-26T09:18:22.002Z,3.63
2022-10-26T09:21:10.165Z,3.58
2022-10-26T09:23:51.958Z,3.50
2022-10-26T09:26:55.012Z,3.70
2022-10-26T09:29:32.300Z,3.28
2022-10-26T09:32:01.822Z,2.90
2022-10-26T09:34:40.053Z,2.60
2022-10-26T09:37:29.820Z,2.90
2022-10-26T09:40:05.664Z,3.10
2022-10-26T09:42:43.771Z,2.53
2022-10-26T09:45:24.851Z,2.60
2022-10-26T09:47:55.142Z,2.72
2022-10-26T09:50:35.637Z,2.88
2022-10-26T09:53:03.185Z,2.65
2022-10-26T09:55:31.973Z,2.97
2022-10-26T09:58:03.006Z,2.85
2022-10-26T10:00:30.861Z,2.58
2022-10-26T10:02:58.885Z,2.63
2022-10-26T10:05:49.289Z,2.72
2022-10-26T10:08:14.093Z,2.40
2022-10-26T10:11:07.750Z,2.50
2022-10-26T10:13:37.894Z,1.95
2022-10-26T10:16:10.256Z,2.60
2022-10-26T10:18:38.370Z,2.40
2022-10-26T10:21:07.007Z,2.35
2022-10-26T10:23:37.020Z,3.15
2022-10-26T10:26:11.121Z,2.30
2022-10-26T10:28:40.024Z,2.83
2022-10-26T10:31:20.205Z,2.30
2022-10-26T10:33:46.977Z,2.28
2022-10-26T10:36:20.205Z,2.10
2022-10-26T10:38:49.451Z,2.28
2022-10-26T10:41:22.439Z,2.58
2022-10-26T10:44:11.328Z,2.22
2022-10-26T10:46:38.396Z,1.90
2022-10-26T10:49:16.194Z,2.70
2022-10-26T10:51:44.290Z,2.88
2022-10-26T10:54:32.023Z,1.92
2022-10-26T10:57:20.734Z,2.10
2022-10-26T11:00:04.651Z,2.25
2022-10-26T11:03:02.525Z,2.40
2022-10-26T11:05:40.494Z,2.58
2022-10-26T11:08:12.462Z,2.80
2022-10-26T11:15:48.765Z,2.55
2022-10-26T11:18:27.161Z,2.90
2022-10-26T11:21:01.794Z,2.80
2022-10-26T11:23:49.444Z,2.67
2022-10-26T11:26:45.103Z,2.83
2022-10-26T11:29:25.548Z,2.65
2022-10-26T11:31:57.812Z,2.78
2022-10-26T11:34:31.781Z,2.40
2022-10-26T11:37:12.145Z,2.58
2022-10-26T11:39:47.007Z,2.47
2022-10-26T11:42:46.327Z,2.20
2022-10-26T11:45:24.263Z,2.17
2022-10-26T11:48:21.603Z,2.17
2022-10-26T11:50:53.302Z,2.95
2022-10-26T11:53:25.245Z,2.17
2022-10-26T11:55:55.094Z,2.40
2022-10-26T11:58:25.560Z,2.80
2022-10-26T12:01:05.295Z,2.70
2022-10-26T12:03:42.382Z,2.45
2022-10-26T12:06:09.166Z,2.50
2022-10-26T12:08:57.044Z,2.28
2022-10-26T12:11:29.851Z,2.65
2022-10-26T12:14:21.553Z,2.35
2022-10-26T12:16:57.139Z,2.45
2022-10-26T12:21:54.501Z,2.40
2022-10-26T12:24:24.150Z,2.10
2022-10-26T12:26:56.699Z,2.22
2022-10-26T12:29:36.598Z,2.00
2022-10-26T12:32:05.635Z,1.70
2022-10-26T12:34:32.412Z,1.85
2022-10-26T12:36:59.036Z,2.25
2022-10-26T12:39:40.748Z,2.08
2022-10-26T12:42:10.542Z,1.92
2022-10-26T12:44:43.549Z,1.60
2022-10-26T12:47:30.998Z,1.98
2022-10-26T12:50:06.805Z,1.90
2022-10-26T12:52:57.350Z,1.90
2022-10-26T12:55:38.856Z,1.85
2022-10-26T12:58:50.047Z,1.73
2022-10-26T13:01:47.498Z,2.13
2022-10-26T13:04:43.216Z,2.20
2022-10-26T13:07:41.986Z,2.10
2022-10-26T13:10:14.691Z,2.10
2022-10-26T13:13:00.352Z,2.22
2022-10-26T13:15:38.910Z,2.00
2022-10-26T13:18:10.677Z,2.08
2022-10-26T13:20:51.151Z,1.90
2022-10-26T13:23:26.250Z,1.83
2022-10-26T13:26:21.369Z,1.83
2022-10-26T13:28:52.534Z,2.30
2022-10-26T13:31:31.587Z,2.10
2022-10-26T13:34:04.093Z,1.90
2022-10-26T13:36:40.962Z,2.00
2022-10-26T13:39:22.064Z,1.73
2022-10-26T13:41:52.342Z,2.00
2022-10-26T13:44:39.145Z,1.98
2022-10-26T13:47:14.984Z,1.80
2022-10-26T13:49:46.097Z,1.90
2022-10-26T13:52:17.260Z,2.95
2022-10-26T13:54:55.852Z,2.30
2022-10-26T13:57:28.307Z,2.40
2022-10-26T14:00:03.026Z,2.30
2022-10-26T14:02:42.896Z,2.47
2022-10-26T14:05:15.356Z,2.00
2022-10-26T14:07:56.984Z,2.10
2022-10-26T14:12:54.245Z,2.20
2022-10-26T14:15:32.226Z,2.75
2022-10-26T14:18:01.216Z,2.25
2022-10-26T14:20:29.951Z,2.20
2022-10-26T14:22:57.103Z,2.58
2022-10-26T14:25:41.715Z,2.60
2022-10-26T14:28:32.767Z,2.83
2022-10-26T14:31:33.430Z,2.78
2022-10-26T14:34:04.252Z,2.67
2022-10-26T14:36:48.836Z,2.10
2022-10-26T14:39:34.351Z,2.28
2022-10-26T14:42:08.593Z,1.52
2022-10-26T14:44:37.188Z,1.80
2022-10-26T14:47:04.028Z,1.80
2022-10-26T14:49:30.691Z,1.70
2022-10-26T14:51:59.715Z,1.90
2022-10-26T14:54:29.015Z,1.80
2022-10-26T14:56:56.844Z,1.90
2022-10-26T14:59:26.466Z,1.40
2022-10-26T15:02:02.154Z,1.50
2022-10-26T15:04:37.228Z,1.70
2022-10-26T15:07:12.730Z,2.72
2022-10-26T15:09:53.475Z,3.85
2022-10-26T15:12:32.418Z,2.00
2022-10-26T15:15:14.097Z,2.00
2022-10-26T15:17:55.907Z,1.60
2022-10-26T15:20:28.139Z,1.88
2022-10-26T15:22:58.247Z,1.70
2022-10-26T15:25:32.279Z,1.88
2022-10-26T15:28:20.774Z,2.00
2022-10-26T15:31:05.048Z,1.58
2022-10-26T15:33:33.170Z,1.95
2022-10-26T15:36:08.831Z,2.40
2022-10-26T15:38:35.623Z,1.95
2022-10-26T15:41:04.585Z,2.40
2022-10-26T15:43:31.276Z,2.28
2022-10-26T15:45:57.919Z,2.88
2022-10-26T15:48:29.832Z,2.67
2022-10-26T15:50:56.991Z,3.50
2022-10-26T15:53:28.476Z,9.15
2022-10-26T15:55:57.777Z,8.50
2022-10-26T15:58:24.991Z,8.43
2022-10-26T16:00:52.431Z,9.82
2022-10-26T16:03:22.195Z,6.85
2022-10-26T16:06:01.633Z,5.60
2022-10-26T16:08:31.355Z,4.28
2022-10-26T16:10:59.083Z,3.03
2022-10-26T16:13:26.908Z,2.50
2022-10-26T16:15:53.875Z,2.17
2022-10-26T16:18:20.691Z,2.33
2022-10-26T16:20:47.812Z,2.22
2022-10-26T16:23:14.960Z,2.80
2022-10-26T16:25:44.952Z,2.88
2022-10-26T16:28:13.639Z,3.28
2022-10-26T16:33:07.958Z,2.63
2022-10-26T16:35:34.927Z,2.30
2022-10-26T16:38:02.261Z,2.13
2022-10-26T16:40:28.992Z,2.20
2022-10-26T16:42:55.819Z,2.00
2022-10-26T16:45:22.645Z,1.88
2022-10-26T16:47:49.824Z,2.88
2022-10-26T16:50:20.554Z,2.13
2022-10-26T16:52:47.333Z,2.13
2022-10-26T16:55:14.156Z,2.33
2022-10-26T16:57:40.867Z,2.28
2022-10-26T17:00:08.248Z,2.80
2022-10-26T17:02:35.144Z,4.22
2022-10-26T17:05:05.897Z,3.72
2022-10-26T17:07:34.823Z,5.18
2022-10-26T17:10:01.796Z,4.00
2022-10-26T17:12:28.691Z,4.57
2022-10-26T17:14:57.119Z,5.18
2022-10-26T17:17:24.022Z,6.38
2022-10-26T17:19:50.765Z,6.75
2022-10-26T17:22:17.747Z,6.05
2022-10-26T17:24:44.493Z,5.82
2022-10-26T17:27:11.342Z,6.57
2022-10-26T17:29:38.064Z,7.60
2022-10-26T17:32:04.740Z,7.40
2022-10-26T17:34:31.476Z,6.53
2022-10-26T17:36:58.191Z,5.35
2022-10-26T17:39:24.911Z,7.22
2022-10-26T17:41:51.813Z,6.07
2022-10-26T17:44:18.552Z,6.90
2022-10-26T17:46:45.770Z,5.30
2022-10-26T17:49:12.591Z,4.43
2022-10-26T17:51:39.460Z,3.90
2022-10-26T17:54:06.447Z,3.78
2022-10-26T17:56:34.172Z,3.35
2022-10-26T17:59:04.667Z,3.40
2022-10-26T18:01:32.301Z,3.03
2022-10-26T18:03:59.568Z,2.80
2022-10-26T18:06:26.548Z,2.50
2022-10-26T18:08:53.311Z,2.55
2022-10-26T18:11:26.730Z,2.63
2022-10-26T18:13:55.587Z,2.58
2022-10-26T18:16:23.762Z,2.60
2022-10-26T18:19:02.113Z,2.78
2022-10-26T18:21:32.310Z,3.10
2022-10-26T18:23:59.487Z,2.60
2022-10-26T18:26:31.097Z,2.78
2022-10-26T18:28:59.375Z,2.40
2022-10-26T18:31:27.799Z,3.25
2022-10-26T18:34:01.947Z,2.45
2022-10-26T18:36:29.619Z,2.92
2022-10-26T18:38:56.444Z,2.90
2022-10-26T18:41:24.946Z,2.90
2022-10-26T18:43:53.929Z,2.65
2022-10-26T18:46:24.015Z,3.17
2022-10-26T18:48:51.679Z,2.95
2022-10-26T18:51:20.816Z,2.90
2022-10-26T18:53:48.189Z,2.72
2022-10-26T18:56:17.746Z,2.78
2022-10-26T18:58:47.463Z,2.95
2022-10-26T19:01:29.676Z,3.38
2022-10-26T19:04:02.206Z,3.22
2022-10-26T19:06:40.986Z,2.75
2022-10-26T19:09:10.016Z,2.60
2022-10-26T19:11:37.440Z,2.85
2022-10-26T19:14:04.464Z,3.05
2022-10-26T19:16:45.437Z,3.47
2022-10-26T19:19:14.621Z,3.30
2022-10-26T19:21:41.547Z,3.50
2022-10-26T19:24:21.549Z,3.10
2022-10-26T19:26:50.512Z,5.55
2022-10-26T19:29:18.239Z,7.80
2022-10-26T19:31:46.777Z,5.68
2022-10-26T19:34:15.463Z,5.50
2022-10-26T19:36:44.988Z,5.10
2022-10-26T19:39:16.063Z,4.32
2022-10-26T19:41:43.761Z,4.93
2022-10-26T19:44:12.146Z,4.55
2022-10-26T19:46:39.785Z,4.22
2022-10-26T19:49:18.096Z,4.30
2022-10-26T19:51:44.848Z,4.20
2022-10-26T19:54:11.654Z,4.30
2022-10-26T19:56:38.578Z,4.55
2022-10-26T19:59:06.465Z,5.78
2022-10-26T20:01:33.905Z,5.47
2022-10-26T20:04:02.713Z,4.35
2022-10-26T20:06:30.822Z,3.92
2022-10-26T20:08:57.735Z,4.25
2022-10-26T20:11:24.396Z,4.47
2022-10-26T20:13:51.245Z,4.10
2022-10-26T20:16:18.177Z,3.78
2022-10-26T20:18:47.809Z,3.78
2022-10-26T20:21:15.968Z,3.50
2022-10-26T20:23:43.766Z,3.58
2022-10-26T20:26:18.061Z,4.00
2022-10-26T20:28:47.758Z,3.80
2022-10-26T20:31:14.771Z,3.78
2022-10-26T20:33:41.637Z,4.18
2022-10-26T20:36:08.384Z,4.70
2022-10-26T20:38:35.487Z,4.30
2022-10-26T20:41:06.124Z,4.75
2022-10-26T20:43:39.778Z,4.50
2022-10-26T20:46:23.351Z,4.53
2022-10-26T20:48:51.419Z,4.25
2022-10-26T20:51:39.914Z,4.22
2022-10-26T20:54:39.175Z,4.28
2022-10-26T20:57:12.535Z,4.60
2022-10-26T20:59:45.052Z,4.38
2022-10-26T21:02:12.187Z,4.10
2022-10-26T21:04:38.941Z,4.03
2022-10-26T21:07:05.728Z,4.47
2022-10-26T21:09:35.739Z,4.65
2022-10-26T21:12:03.991Z,4.18
2022-10-26T21:14:30.777Z,4.22
2022-10-26T21:16:57.607Z,4.65
2022-10-26T21:19:24.453Z,4.38
2022-10-26T21:21:53.468Z,4.38
2022-10-26T21:24:20.277Z,4.45
2022-10-26T21:26:47.087Z,4.38
2022-10-26T21:29:14.016Z,4.15
2022-10-26T21:31:40.843Z,4.38
2022-10-26T21:34:08.212Z,4.68
2022-10-26T21:36:35.120Z,4.75
2022-10-26T21:39:01.859Z,4.45
2022-10-26T21:41:28.834Z,4.70
2022-10-26T21:44:03.557Z,4.28
2022-10-26T21:46:38.028Z,3.70
2022-10-26T21:49:05.387Z,4.20
2022-10-26T21:51:32.332Z,3.65
2022-10-26T21:53:59.047Z,4.10
2022-10-26T21:56:25.895Z,4.10
2022-10-26T21:58:52.701Z,4.15
2022-10-26T22:01:21.845Z,4.18
2022-10-26T22:03:49.544Z,3.95
2022-10-26T22:06:21.187Z,4.00
2022-10-26T22:08:48.227Z,3.63
2022-10-26T22:11:18.061Z,3.53
2022-10-26T22:13:45.895Z,3.53
2022-10-26T22:16:20.684Z,4.63
2022-10-26T22:18:49.056Z,4.22
2022-10-26T22:21:17.722Z,4.63
2022-10-26T22:23:44.912Z,4.90
2022-10-26T22:26:23.414Z,4.30
2022-10-26T22:28:52.524Z,5.20
2022-10-26T22:34:04.747Z,4.53
2022-10-26T22:36:34.198Z,4.97
2022-10-26T22:39:01.239Z,4.97
2022-10-26T22:41:28.055Z,4.55
2022-10-26T22:43:54.928Z,4.75
2022-10-26T22:46:23.582Z,4.78
2022-10-26T22:48:54.826Z,5.00
2022-10-26T22:51:23.715Z,5.38
2022-10-26T22:53:55.694Z,5.70
2022-10-26T22:56:24.451Z,4.90
2022-10-26T22:58:52.092Z,4.75
2022-10-26T23:01:25.608Z,4.68
2022-10-26T23:03:56.004Z,5.03
2022-10-26T23:06:24.132Z,5.07
2022-10-26T23:08:50.816Z,5.18
2022-10-26T23:11:19.540Z,5.20
2022-10-26T23:13:46.739Z,4.45
2022-10-26T23:16:16.313Z,4.57
2022-10-26T23:18:43.283Z,5.00
2022-10-26T23:21:11.593Z,5.03
2022-10-26T23:23:38.780Z,6.13
2022-10-26T23:26:16.860Z,4.45
2022-10-26T23:28:44.687Z,4.60
2022-10-26T23:31:20.671Z,4.07
2022-10-26T23:33:50.107Z,4.82
2022-10-26T23:36:16.964Z,5.05
2022-10-26T23:38:43.999Z,4.75
2022-10-26T23:41:12.881Z,5.03
2022-10-26T23:43:40.509Z,4.28
2022-10-26T23:46:07.581Z,4.28
2022-10-26T23:48:34.562Z,5.13
2022-10-26T23:51:01.244Z,5.13
2022-10-26T23:53:28.020Z,5.28
2022-10-26T23:55:54.919Z,4.90
2022-10-26T23:58:21.763Z,4.65
